Anguilla, Anguilla

12:56 AM AST on March 27, 2017 (GMT -0400)
The Valley | | Change Station

Elev 92 ft 18.21 °N, 63.05 °W | Updated 2 seconds ago

Partly Cloudy
Partly Cloudy
77.5 °F
Feels Like 79 °F
N
4.3
Wind Variable Wind from ESE

Today
High -- | Low -- °F
--% Chance of Precip.
Yesterday
High -- | Low -- °F
Precip. -- in
Pressure 29.95 in
Visibility 6.2 miles
Clouds Scattered Clouds 1800 ft
Heat Index 79 °F
Dew Point 70 °F
Humidity 79%
Rainfall --
Snow Depth Not available.
6:10 AM 6:24 PM
Waning Crescent, 1% visible
METAR TNCM 270400Z 13007KT 9999 SCT018 26/24 Q1014 A2996
Pressure 29.95 in
Visibility 6.2 miles
Clouds Scattered Clouds 1800 ft
Heat Index 79 °F
Dew Point 70 °F
Humidity 79%
Rainfall --
Snow Depth Not available.
6:10 AM 6:24 PM
Waning Crescent, 1% visible
METAR TNCM 270400Z 13007KT 9999 SCT018 26/24 Q1014 A2996

Get Severe Weather Alerts

Thanks for signing up!

Be on the lookout for a verification email in your inbox.

You'll start receiving the daily forecast at 8 AM.

×

10-Day Weather Forecast

No radar image for this location.
×

Almanac

Astronomy

Mar. 27, 2017 Rise Set
Actual Time
Civil Twilight
Nautical Twilight
Astronomical Twilight
Moon
Length of Visible Light
Length of Day
Tomorrow will be .
, % of the Moon is Illuminated

Today's Extremes

Country Highs Country Lows

Community

WunderPhotos

Upload Photos

1,962,540 photos uploaded!

WunderBlog® & News

Nearby

Air Quality

  Air Quality AQ Index Pollutant
Not available.

Snow Depth

Station Depth Elevation

Earthquake Activity

City Distance Mag. Time & Date
Minimum magnitude displayed is 2.5.

Earthquake Activity

City Distance Mag. Time & Date
Minimum magnitude displayed is 2.5.

Coastal Water Temperatures

Place Temperature

Stations

Nearby Weather Stations

Station Location Temp. Windchill Dew Point Humidity Wind Precip. Elev Updated Type